sensor_id;sensor_type;location;lat;lon;timestamp;pressure;altitude;pressure_sealevel;temperature;humidity
12636;BME280;6383;50.830;7.210;2022-07-29T00:00:55;100714.09;;;21.10;52.05
12636;BME280;6383;50.830;7.210;2022-07-29T00:03:24;100712.47;;;21.09;52.43
12636;BME280;6383;50.830;7.210;2022-07-29T00:05:55;100725.13;;;21.07;52.03
12636;BME280;6383;50.830;7.210;2022-07-29T00:08:24;100712.44;;;21.06;52.51
12636;BME280;6383;50.830;7.210;2022-07-29T00:10:53;100718.34;;;21.04;52.31
12636;BME280;6383;50.830;7.210;2022-07-29T00:13:22;100711.56;;;21.02;52.64
12636;BME280;6383;50.830;7.210;2022-07-29T00:15:51;100718.25;;;21.01;52.99
12636;BME280;6383;50.830;7.210;2022-07-29T00:18:21;100724.53;;;20.98;53.09
12636;BME280;6383;50.830;7.210;2022-07-29T00:20:50;100723.66;;;20.94;53.53
12636;BME280;6383;50.830;7.210;2022-07-29T00:23:20;100719.97;;;20.86;53.77
12636;BME280;6383;50.830;7.210;2022-07-29T00:25:50;100710.44;;;21.49;53.24
12636;BME280;6383;50.830;7.210;2022-07-29T00:28:19;100701.72;;;21.73;51.92
12636;BME280;6383;50.830;7.210;2022-07-29T00:30:48;100706.75;;;21.90;51.76
12636;BME280;6383;50.830;7.210;2022-07-29T00:33:17;100707.78;;;22.05;51.25
12636;BME280;6383;50.830;7.210;2022-07-29T00:35:46;100705.56;;;22.17;50.70
12636;BME280;6383;50.830;7.210;2022-07-29T00:38:17;100695.78;;;22.27;49.89
12636;BME280;6383;50.830;7.210;2022-07-29T00:40:49;100696.31;;;22.36;49.63
12636;BME280;6383;50.830;7.210;2022-07-29T00:43:18;100701.13;;;22.39;49.31
12636;BME280;6383;50.830;7.210;2022-07-29T00:45:47;100699.94;;;22.40;48.74
12636;BME280;6383;50.830;7.210;2022-07-29T00:48:16;100689.22;;;22.39;49.00
12636;BME280;6383;50.830;7.210;2022-07-29T00:50:45;100691.22;;;22.42;50.02
12636;BME280;6383;50.830;7.210;2022-07-29T00:53:15;100686.91;;;22.44;49.29
12636;BME280;6383;50.830;7.210;2022-07-29T00:55:44;100686.16;;;22.47;49.14
12636;BME280;6383;50.830;7.210;2022-07-29T00:58:14;100688.13;;;22.47;48.88
12636;BME280;6383;50.830;7.210;2022-07-29T01:00:44;100692.50;;;22.48;48.79
12636;BME280;6383;50.830;7.210;2022-07-29T01:03:13;100685.78;;;22.49;49.12
12636;BME280;6383;50.830;7.210;2022-07-29T01:05:43;100679.84;;;22.50;49.43
12636;BME280;6383;50.830;7.210;2022-07-29T01:08:15;100675.91;;;22.51;49.45
12636;BME280;6383;50.830;7.210;2022-07-29T01:10:45;100678.28;;;22.53;48.41
12636;BME280;6383;50.830;7.210;2022-07-29T01:13:16;100671.94;;;22.52;49.00
12636;BME280;6383;50.830;7.210;2022-07-29T01:15:47;100675.53;;;22.53;48.37
12636;BME280;6383;50.830;7.210;2022-07-29T01:18:23;100660.84;;;22.52;48.48
12636;BME280;6383;50.830;7.210;2022-07-29T01:21:13;100661.66;;;22.53;48.71
12636;BME280;6383;50.830;7.210;2022-07-29T01:24:09;100657.22;;;22.48;48.21
12636;BME280;6383;50.830;7.210;2022-07-29T01:26:46;100654.47;;;22.48;48.19
12636;BME280;6383;50.830;7.210;2022-07-29T01:29:22;100648.91;;;22.48;48.54
12636;BME280;6383;50.830;7.210;2022-07-29T01:31:57;100648.13;;;22.48;48.86
12636;BME280;6383;50.830;7.210;2022-07-29T01:34:32;100642.94;;;22.46;48.86
12636;BME280;6383;50.830;7.210;2022-07-29T01:37:08;100637.78;;;22.45;49.01
12636;BME280;6383;50.830;7.210;2022-07-29T01:39:41;100636.16;;;22.44;48.97
12636;BME280;6383;50.830;7.210;2022-07-29T01:42:15;100631.00;;;22.42;48.58
12636;BME280;6383;50.830;7.210;2022-07-29T01:44:56;100631.38;;;22.41;48.43
12636;BME280;6383;50.830;7.210;2022-07-29T01:47:32;100640.09;;;22.39;48.83
12636;BME280;6383;50.830;7.210;2022-07-29T01:50:05;100628.22;;;22.39;49.69
12636;BME280;6383;50.830;7.210;2022-07-29T01:52:37;100639.25;;;22.35;50.78
12636;BME280;6383;50.830;7.210;2022-07-29T01:55:12;100643.56;;;22.33;50.04
12636;BME280;6383;50.830;7.210;2022-07-29T01:57:46;100636.00;;;22.30;50.67
12636;BME280;6383;50.830;7.210;2022-07-29T02:00:17;100635.97;;;22.26;50.89
12636;BME280;6383;50.830;7.210;2022-07-29T02:02:48;100630.81;;;22.25;50.93
12636;BME280;6383;50.830;7.210;2022-07-29T02:05:20;100628.41;;;22.23;51.09
12636;BME280;6383;50.830;7.210;2022-07-29T02:07:52;100636.31;;;22.21;51.06
12636;BME280;6383;50.830;7.210;2022-07-29T02:10:25;100627.56;;;22.19;50.73
12636;BME280;6383;50.830;7.210;2022-07-29T02:12:56;100629.13;;;22.16;51.11
12636;BME280;6383;50.830;7.210;2022-07-29T02:15:29;100629.06;;;22.13;50.86
12636;BME280;6383;50.830;7.210;2022-07-29T02:18:01;100627.81;;;22.07;50.29
12636;BME280;6383;50.830;7.210;2022-07-29T02:20:31;100628.44;;;21.97;51.09
12636;BME280;6383;50.830;7.210;2022-07-29T02:23:01;100621.19;;;21.89;52.04
12636;BME280;6383;50.830;7.210;2022-07-29T02:25:31;100619.53;;;21.84;51.85
12636;BME280;6383;50.830;7.210;2022-07-29T02:28:02;100618.72;;;21.80;50.72
12636;BME280;6383;50.830;7.210;2022-07-29T02:30:36;100611.94;;;21.77;51.33
12636;BME280;6383;50.830;7.210;2022-07-29T02:33:08;100617.50;;;21.77;51.34
12636;BME280;6383;50.830;7.210;2022-07-29T02:35:39;100611.94;;;21.77;51.39
12636;BME280;6383;50.830;7.210;2022-07-29T02:38:13;100605.97;;;21.75;50.85
12636;BME280;6383;50.830;7.210;2022-07-29T02:41:03;100604.75;;;21.73;50.38
12636;BME280;6383;50.830;7.210;2022-07-29T02:43:33;100607.91;;;21.71;49.38
12636;BME280;6383;50.830;7.210;2022-07-29T02:46:04;100611.38;;;21.65;49.27
12636;BME280;6383;50.830;7.210;2022-07-29T02:48:38;100614.91;;;21.62;49.96
12636;BME280;6383;50.830;7.210;2022-07-29T02:51:13;100610.53;;;21.61;50.20
12636;BME280;6383;50.830;7.210;2022-07-29T02:53:49;100611.69;;;21.60;50.87
12636;BME280;6383;50.830;7.210;2022-07-29T02:56:25;100632.25;;;21.59;51.82
12636;BME280;6383;50.830;7.210;2022-07-29T02:58:58;100639.69;;;21.55;51.76
12636;BME280;6383;50.830;7.210;2022-07-29T03:01:32;100632.53;;;21.50;52.70
12636;BME280;6383;50.830;7.210;2022-07-29T03:04:04;100632.47;;;21.46;52.69
12636;BME280;6383;50.830;7.210;2022-07-29T03:06:33;100635.59;;;21.45;52.97
12636;BME280;6383;50.830;7.210;2022-07-29T03:09:02;100630.44;;;21.43;52.73
12636;BME280;6383;50.830;7.210;2022-07-29T03:11:32;100633.56;;;21.42;52.62
12636;BME280;6383;50.830;7.210;2022-07-29T03:14:02;100632.78;;;21.41;52.94
12636;BME280;6383;50.830;7.210;2022-07-29T03:16:34;100630.75;;;21.38;52.42
12636;BME280;6383;50.830;7.210;2022-07-29T03:19:05;100628.78;;;21.39;53.05
12636;BME280;6383;50.830;7.210;2022-07-29T03:21:33;100635.13;;;21.39;53.34
12636;BME280;6383;50.830;7.210;2022-07-29T03:24:02;100641.44;;;21.40;52.90
12636;BME280;6383;50.830;7.210;2022-07-29T03:26:31;100629.22;;;21.41;52.79
12636;BME280;6383;50.830;7.210;2022-07-29T03:29:01;100634.38;;;21.42;52.54
12636;BME280;6383;50.830;7.210;2022-07-29T03:31:30;100645.88;;;21.44;52.50
12636;BME280;6383;50.830;7.210;2022-07-29T03:34:00;100653.47;;;21.48;53.17
12636;BME280;6383;50.830;7.210;2022-07-29T03:36:29;100656.22;;;21.48;53.63
12636;BME280;6383;50.830;7.210;2022-07-29T03:38:59;100652.66;;;21.47;54.06
12636;BME280;6383;50.830;7.210;2022-07-29T03:41:30;100649.88;;;21.47;54.58
12636;BME280;6383;50.830;7.210;2022-07-29T03:44:00;100642.75;;;21.46;53.99
12636;BME280;6383;50.830;7.210;2022-07-29T03:46:32;100645.88;;;21.44;53.93
12636;BME280;6383;50.830;7.210;2022-07-29T03:49:04;100635.19;;;21.43;54.06
12636;BME280;6383;50.830;7.210;2022-07-29T03:51:34;100639.53;;;21.44;53.13
12636;BME280;6383;50.830;7.210;2022-07-29T03:54:03;100651.44;;;21.44;52.87
12636;BME280;6383;50.830;7.210;2022-07-29T03:56:34;100653.03;;;21.45;52.94
12636;BME280;6383;50.830;7.210;2022-07-29T03:59:05;100652.66;;;21.47;51.74
12636;BME280;6383;50.830;7.210;2022-07-29T04:01:35;100653.47;;;21.48;52.64
12636;BME280;6383;50.830;7.210;2022-07-29T04:04:06;100649.50;;;21.49;51.89
12636;BME280;6383;50.830;7.210;2022-07-29T04:06:39;100645.56;;;21.50;51.79
12636;BME280;6383;50.830;7.210;2022-07-29T04:09:09;100654.69;;;21.50;51.91
12636;BME280;6383;50.830;7.210;2022-07-29T04:11:40;100658.25;;;21.51;51.35
12636;BME280;6383;50.830;7.210;2022-07-29T04:14:09;100661.03;;;21.51;51.84
12636;BME280;6383;50.830;7.210;2022-07-29T04:16:38;100649.56;;;21.52;51.90
12636;BME280;6383;50.830;7.210;2022-07-29T04:19:09;100663.81;;;21.54;51.49
12636;BME280;6383;50.830;7.210;2022-07-29T04:21:38;100659.09;;;21.55;52.17
12636;BME280;6383;50.830;7.210;2022-07-29T04:24:07;100663.09;;;21.57;51.82
12636;BME280;6383;50.830;7.210;2022-07-29T04:26:35;100659.53;;;21.57;52.27
12636;BME280;6383;50.830;7.210;2022-07-29T04:29:03;100661.13;;;21.58;51.44
12636;BME280;6383;50.830;7.210;2022-07-29T04:31:32;100652.00;;;21.57;51.10
12636;BME280;6383;50.830;7.210;2022-07-29T04:34:01;100665.84;;;21.57;51.10
12636;BME280;6383;50.830;7.210;2022-07-29T04:36:31;100672.19;;;21.58;51.17
12636;BME280;6383;50.830;7.210;2022-07-29T04:39:01;100673.00;;;21.58;51.57
12636;BME280;6383;50.830;7.210;2022-07-29T04:41:30;100673.06;;;21.62;52.05
12636;BME280;6383;50.830;7.210;2022-07-29T04:43:59;100674.66;;;21.63;52.54
12636;BME280;6383;50.830;7.210;2022-07-29T04:46:32;100663.59;;;21.63;52.70
12636;BME280;6383;50.830;7.210;2022-07-29T04:49:02;100668.75;;;21.64;53.08
12636;BME280;6383;50.830;7.210;2022-07-29T04:51:33;100669.13;;;21.63;52.43
12636;BME280;6383;50.830;7.210;2022-07-29T04:54:02;100664.41;;;21.67;53.84
12636;BME280;6383;50.830;7.210;2022-07-29T04:56:31;100668.78;;;21.68;52.72
12636;BME280;6383;50.830;7.210;2022-07-29T04:59:00;100665.28;;;21.71;51.63
12636;BME280;6383;50.830;7.210;2022-07-29T05:01:30;100668.47;;;21.73;50.96
12636;BME280;6383;50.830;7.210;2022-07-29T05:03:59;100664.16;;;21.75;51.95
12636;BME280;6383;50.830;7.210;2022-07-29T05:06:28;100674.44;;;21.75;52.34
12636;BME280;6383;50.830;7.210;2022-07-29T05:08:58;100677.28;;;21.78;51.91
12636;BME280;6383;50.830;7.210;2022-07-29T05:11:28;100670.19;;;21.81;51.29
12636;BME280;6383;50.830;7.210;2022-07-29T05:13:57;100686.03;;;21.84;52.44
12636;BME280;6383;50.830;7.210;2022-07-29T05:16:26;100683.72;;;21.86;53.75
12636;BME280;6383;50.830;7.210;2022-07-29T05:18:55;100690.47;;;21.89;53.63
12636;BME280;6383;50.830;7.210;2022-07-29T05:21:24;100680.63;;;21.91;52.57
12636;BME280;6383;50.830;7.210;2022-07-29T05:23:53;100690.53;;;21.92;51.84
12636;BME280;6383;50.830;7.210;2022-07-29T05:26:24;100687.41;;;21.94;51.39
12636;BME280;6383;50.830;7.210;2022-07-29T05:28:53;100692.56;;;21.95;52.74
12636;BME280;6383;50.830;7.210;2022-07-29T05:31:22;100700.47;;;21.97;52.13
12636;BME280;6383;50.830;7.210;2022-07-29T05:33:51;100695.03;;;22.00;50.63
12636;BME280;6383;50.830;7.210;2022-07-29T05:36:20;100707.78;;;22.05;48.96
12636;BME280;6383;50.830;7.210;2022-07-29T05:38:50;100713.75;;;22.07;49.59
12636;BME280;6383;50.830;7.210;2022-07-29T05:41:20;100713.00;;;22.10;51.08
12636;BME280;6383;50.830;7.210;2022-07-29T05:43:50;100712.22;;;22.13;49.59
12636;BME280;6383;50.830;7.210;2022-07-29T05:46:19;100716.66;;;22.17;51.07
12636;BME280;6383;50.830;7.210;2022-07-29T05:48:48;100717.50;;;22.22;51.13
12636;BME280;6383;50.830;7.210;2022-07-29T05:51:17;100725.09;;;22.25;50.83
12636;BME280;6383;50.830;7.210;2022-07-29T05:53:47;100731.81;;;22.27;49.51
12636;BME280;6383;50.830;7.210;2022-07-29T05:56:16;100720.78;;;22.31;49.84
12636;BME280;6383;50.830;7.210;2022-07-29T05:58:45;100739.09;;;22.35;49.57
12636;BME280;6383;50.830;7.210;2022-07-29T06:01:15;100740.75;;;22.40;50.02
12636;BME280;6383;50.830;7.210;2022-07-29T06:03:45;100742.38;;;22.44;50.68
12636;BME280;6383;50.830;7.210;2022-07-29T06:06:14;100751.97;;;22.50;50.54
12636;BME280;6383;50.830;7.210;2022-07-29T06:08:43;100752.03;;;22.54;51.70
12636;BME280;6383;50.830;7.210;2022-07-29T06:11:12;100751.66;;;22.59;50.75
12636;BME280;6383;50.830;7.210;2022-07-29T06:13:42;100755.28;;;22.63;50.63
12636;BME280;6383;50.830;7.210;2022-07-29T06:16:11;100758.94;;;22.67;50.33
12636;BME280;6383;50.830;7.210;2022-07-29T06:18:42;100761.34;;;22.72;50.66
12636;BME280;6383;50.830;7.210;2022-07-29T06:21:11;100762.56;;;22.75;50.75
12636;BME280;6383;50.830;7.210;2022-07-29T06:23:40;100769.28;;;22.74;51.54
12636;BME280;6383;50.830;7.210;2022-07-29T06:26:09;100766.16;;;22.75;52.19
12636;BME280;6383;50.830;7.210;2022-07-29T06:28:38;100769.81;;;22.79;51.88
12636;BME280;6383;50.830;7.210;2022-07-29T06:31:08;100775.78;;;22.81;51.38
12636;BME280;6383;50.830;7.210;2022-07-29T06:33:35;100774.19;;;22.80;50.56
12636;BME280;6383;50.830;7.210;2022-07-29T06:36:05;100775.41;;;22.83;49.21
12636;BME280;6383;50.830;7.210;2022-07-29T06:38:33;100771.44;;;22.84;50.52
12636;BME280;6383;50.830;7.210;2022-07-29T06:41:02;100772.25;;;22.84;50.17
12636;BME280;6383;50.830;7.210;2022-07-29T06:43:35;100779.78;;;22.88;50.35
12636;BME280;6383;50.830;7.210;2022-07-29T06:46:05;100779.03;;;22.91;50.00
12636;BME280;6383;50.830;7.210;2022-07-29T06:48:33;100784.22;;;22.92;49.65
12636;BME280;6383;50.830;7.210;2022-07-29T06:51:05;100782.66;;;22.95;49.28
12636;BME280;6383;50.830;7.210;2022-07-29T06:53:34;100772.78;;;22.97;48.95
12636;BME280;6383;50.830;7.210;2022-07-29T06:56:04;100773.22;;;23.03;48.64
12636;BME280;6383;50.830;7.210;2022-07-29T06:58:36;100762.19;;;23.06;48.35
12636;BME280;6383;50.830;7.210;2022-07-29T07:01:05;100762.22;;;23.10;49.59
12636;BME280;6383;50.830;7.210;2022-07-29T07:03:33;100770.59;;;23.17;48.56
12636;BME280;6383;50.830;7.210;2022-07-29T07:06:04;100766.69;;;23.21;48.10
12636;BME280;6383;50.830;7.210;2022-07-29T07:08:33;100762.38;;;23.24;48.15
12636;BME280;6383;50.830;7.210;2022-07-29T07:11:02;100774.28;;;23.25;47.84
12636;BME280;6383;50.830;7.210;2022-07-29T07:13:32;100777.47;;;23.27;48.11
12636;BME280;6383;50.830;7.210;2022-07-29T07:16:02;100776.28;;;23.28;48.79
12636;BME280;6383;50.830;7.210;2022-07-29T07:18:32;100769.16;;;23.30;48.76
12636;BME280;6383;50.830;7.210;2022-07-29T07:21:01;100766.84;;;23.36;47.76
12636;BME280;6383;50.830;7.210;2022-07-29T07:23:34;100758.59;;;23.43;47.38
12636;BME280;6383;50.830;7.210;2022-07-29T07:26:03;100764.56;;;23.48;47.58
12636;BME280;6383;50.830;7.210;2022-07-29T07:28:36;100761.88;;;23.52;49.00
12636;BME280;6383;50.830;7.210;2022-07-29T07:31:03;100759.53;;;23.58;49.03
12636;BME280;6383;50.830;7.210;2022-07-29T07:33:34;100762.38;;;23.65;47.41
12636;BME280;6383;50.830;7.210;2022-07-29T07:36:04;100755.66;;;23.69;47.07
12636;BME280;6383;50.830;7.210;2022-07-29T07:38:34;100755.31;;;23.78;47.08
12636;BME280;6383;50.830;7.210;2022-07-29T07:41:04;100750.22;;;23.83;47.69
12636;BME280;6383;50.830;7.210;2022-07-29T07:43:33;100760.19;;;23.91;48.18
12636;BME280;6383;50.830;7.210;2022-07-29T07:46:04;100758.28;;;23.99;48.42
12636;BME280;6383;50.830;7.210;2022-07-29T07:48:35;100768.63;;;24.06;47.24
12636;BME280;6383;50.830;7.210;2022-07-29T07:51:08;100757.16;;;24.11;48.20
12636;BME280;6383;50.830;7.210;2022-07-29T07:53:37;100756.81;;;24.16;48.30
12636;BME280;6383;50.830;7.210;2022-07-29T07:56:06;100749.69;;;24.18;48.11
12636;BME280;6383;50.830;7.210;2022-07-29T07:58:38;100757.22;;;24.21;45.72
12636;BME280;6383;50.830;7.210;2022-07-29T08:01:06;100757.28;;;24.25;46.93
12636;BME280;6383;50.830;7.210;2022-07-29T08:03:36;100750.94;;;24.28;46.16
12636;BME280;6383;50.830;7.210;2022-07-29T08:06:10;100750.16;;;24.31;45.22
12636;BME280;6383;50.830;7.210;2022-07-29T08:08:42;100749.38;;;24.34;44.95
12636;BME280;6383;50.830;7.210;2022-07-29T08:11:14;100751.38;;;24.37;44.86
12636;BME280;6383;50.830;7.210;2022-07-29T08:13:46;100753.78;;;24.39;46.61
12636;BME280;6383;50.830;7.210;2022-07-29T08:16:22;100752.19;;;24.41;48.13
12636;BME280;6383;50.830;7.210;2022-07-29T08:18:55;100738.69;;;24.43;48.37
12636;BME280;6383;50.830;7.210;2022-07-29T08:21:33;100743.50;;;24.46;48.04
12636;BME280;6383;50.830;7.210;2022-07-29T08:24:07;100751.84;;;23.91;48.71
12636;BME280;6383;50.830;7.210;2022-07-29T08:26:57;100752.41;;;23.60;50.06
12636;BME280;6383;50.830;7.210;2022-07-29T08:29:32;100749.00;;;23.37;50.20
12636;BME280;6383;50.830;7.210;2022-07-29T08:32:10;100751.25;;;23.24;49.95
12636;BME280;6383;50.830;7.210;2022-07-29T08:34:45;100752.34;;;23.12;50.29
12636;BME280;6383;50.830;7.210;2022-07-29T08:37:38;100754.97;;;23.02;50.33
12636;BME280;6383;50.830;7.210;2022-07-29T08:40:12;100759.38;;;22.73;50.20
12636;BME280;6383;50.830;7.210;2022-07-29T08:42:46;100754.00;;;22.83;50.91
12636;BME280;6383;50.830;7.210;2022-07-29T08:45:20;100744.06;;;22.82;49.96
12636;BME280;6383;50.830;7.210;2022-07-29T08:50:57;100745.63;;;22.80;50.14
12636;BME280;6383;50.830;7.210;2022-07-29T08:57:04;100743.59;;;22.77;49.84
12636;BME280;6383;50.830;7.210;2022-07-29T08:59:30;100742.84;;;22.80;49.30
12636;BME280;6383;50.830;7.210;2022-07-29T09:02:03;100749.63;;;22.82;49.28
12636;BME280;6383;50.830;7.210;2022-07-29T09:04:49;100740.50;;;22.85;48.35
12636;BME280;6383;50.830;7.210;2022-07-29T09:07:47;100738.94;;;22.84;49.18
12636;BME280;6383;50.830;7.210;2022-07-29T09:10:34;100741.38;;;22.90;47.45
12636;BME280;6383;50.830;7.210;2022-07-29T09:13:22;100739.00;;;22.92;47.15
12636;BME280;6383;50.830;7.210;2022-07-29T09:16:00;100727.94;;;22.95;47.30
12636;BME280;6383;50.830;7.210;2022-07-29T09:21:44;100721.66;;;23.02;46.20
12636;BME280;6383;50.830;7.210;2022-07-29T09:24:42;100724.06;;;23.03;45.69
12636;BME280;6383;50.830;7.210;2022-07-29T09:27:20;100726.13;;;23.10;45.38
12636;BME280;6383;50.830;7.210;2022-07-29T09:29:58;100725.38;;;23.16;45.52
12636;BME280;6383;50.830;7.210;2022-07-29T09:32:28;100732.63;;;23.25;45.76
12636;BME280;6383;50.830;7.210;2022-07-29T09:35:17;100727.91;;;23.29;44.97
12636;BME280;6383;50.830;7.210;2022-07-29T09:37:47;100731.56;;;23.40;45.17
12636;BME280;6383;50.830;7.210;2022-07-29T09:40:17;100722.47;;;23.46;43.46
12636;BME280;6383;50.830;7.210;2022-07-29T09:42:47;100726.09;;;23.50;43.53
12636;BME280;6383;50.830;7.210;2022-07-29T09:45:28;100729.31;;;23.52;44.26
12636;BME280;6383;50.830;7.210;2022-07-29T09:47:58;100732.16;;;23.60;43.48
12636;BME280;6383;50.830;7.210;2022-07-29T09:50:38;100730.59;;;23.62;43.85
12636;BME280;6383;50.830;7.210;2022-07-29T09:53:06;100723.09;;;23.66;42.47
12636;BME280;6383;50.830;7.210;2022-07-29T09:55:49;100724.69;;;23.67;43.71
12636;BME280;6383;50.830;7.210;2022-07-29T09:58:20;100725.53;;;23.75;43.27
12636;BME280;6383;50.830;7.210;2022-07-29T10:00:53;100725.97;;;23.80;42.59
12636;BME280;6383;50.830;7.210;2022-07-29T10:03:23;100729.19;;;23.86;43.27
12636;BME280;6383;50.830;7.210;2022-07-29T10:06:07;100728.44;;;23.89;43.60
12636;BME280;6383;50.830;7.210;2022-07-29T10:08:37;100723.31;;;23.98;43.87
12636;BME280;6383;50.830;7.210;2022-07-29T10:11:11;100724.53;;;24.04;44.86
12636;BME280;6383;50.830;7.210;2022-07-29T10:13:41;100722.59;;;24.12;45.12
12636;BME280;6383;50.830;7.210;2022-07-29T10:16:13;100718.28;;;24.18;44.60
12636;BME280;6383;50.830;7.210;2022-07-29T10:18:43;100725.09;;;24.24;45.48
12636;BME280;6383;50.830;7.210;2022-07-29T10:21:13;100721.56;;;24.31;46.70
12636;BME280;6383;50.830;7.210;2022-07-29T10:23:42;100709.25;;;24.35;45.72
12636;BME280;6383;50.830;7.210;2022-07-29T10:26:13;100710.84;;;24.40;45.63
12636;BME280;6383;50.830;7.210;2022-07-29T10:28:43;100720.03;;;24.44;45.85
12636;BME280;6383;50.830;7.210;2022-07-29T10:31:21;100718.44;;;24.46;44.79
12636;BME280;6383;50.830;7.210;2022-07-29T10:34:02;100715.66;;;24.50;45.22
12636;BME280;6383;50.830;7.210;2022-07-29T10:36:44;100722.81;;;24.51;44.73
12636;BME280;6383;50.830;7.210;2022-07-29T10:39:27;100722.81;;;24.51;45.03
12636;BME280;6383;50.830;7.210;2022-07-29T10:42:11;100726.78;;;24.50;45.75
12636;BME280;6383;50.830;7.210;2022-07-29T10:44:45;100718.47;;;24.53;45.02
12636;BME280;6383;50.830;7.210;2022-07-29T10:47:22;100721.63;;;24.52;45.04
12636;BME280;6383;50.830;7.210;2022-07-29T10:49:57;100721.25;;;24.53;45.26
12636;BME280;6383;50.830;7.210;2022-07-29T10:52:53;100722.84;;;24.47;45.11
12636;BME280;6383;50.830;7.210;2022-07-29T10:55:31;100712.88;;;24.50;45.52
12636;BME280;6383;50.830;7.210;2022-07-29T10:58:14;100722.03;;;24.47;45.57
12636;BME280;6383;50.830;7.210;2022-07-29T11:00:44;100720.44;;;24.53;46.08
12636;BME280;6383;50.830;7.210;2022-07-29T11:03:44;100715.66;;;24.50;46.15
12636;BME280;6383;50.830;7.210;2022-07-29T11:06:14;100722.88;;;24.58;47.04
12636;BME280;6383;50.830;7.210;2022-07-29T11:08:43;100723.69;;;24.66;46.26
12636;BME280;6383;50.830;7.210;2022-07-29T11:11:33;100715.72;;;24.64;46.87
12636;BME280;6383;50.830;7.210;2022-07-29T11:14:04;100718.56;;;24.75;46.44
12636;BME280;6383;50.830;7.210;2022-07-29T11:16:59;100721.72;;;24.73;46.04
12636;BME280;6383;50.830;7.210;2022-07-29T11:19:31;100718.94;;;24.80;46.46
12636;BME280;6383;50.830;7.210;2022-07-29T11:22:00;100716.97;;;24.84;46.37
12636;BME280;6383;50.830;7.210;2022-07-29T11:24:29;100716.19;;;24.87;46.40
12636;BME280;6383;50.830;7.210;2022-07-29T11:27:16;100724.16;;;24.85;46.63
12636;BME280;6383;50.830;7.210;2022-07-29T11:29:53;100717.81;;;24.88;46.28
12636;BME280;6383;50.830;7.210;2022-07-29T11:32:24;100719.81;;;24.95;46.45
12636;BME280;6383;50.830;7.210;2022-07-29T11:35:14;100725.38;;;24.91;46.35
12636;BME280;6383;50.830;7.210;2022-07-29T11:37:45;100722.63;;;24.99;45.80
12636;BME280;6383;50.830;7.210;2022-07-29T11:40:16;100722.63;;;25.02;46.19
12636;BME280;6383;50.830;7.210;2022-07-29T11:42:47;100723.84;;;25.05;46.21
12636;BME280;6383;50.830;7.210;2022-07-29T11:45:22;100718.66;;;25.10;45.24
12636;BME280;6383;50.830;7.210;2022-07-29T11:47:57;100719.06;;;25.12;45.38
12636;BME280;6383;50.830;7.210;2022-07-29T11:50:31;100714.31;;;25.16;45.04
12636;BME280;6383;50.830;7.210;2022-07-29T11:53:10;100713.09;;;25.14;44.53
12636;BME280;6383;50.830;7.210;2022-07-29T11:55:40;100707.94;;;25.19;45.07
12636;BME280;6383;50.830;7.210;2022-07-29T11:58:10;100707.16;;;25.22;44.90
12636;BME280;6383;50.830;7.210;2022-07-29T12:00:40;100711.94;;;25.29;45.14
12636;BME280;6383;50.830;7.210;2022-07-29T12:03:10;100710.34;;;25.32;44.44
12636;BME280;6383;50.830;7.210;2022-07-29T12:05:44;100711.16;;;25.36;45.11
12636;BME280;6383;50.830;7.210;2022-07-29T12:08:14;100711.53;;;25.41;45.26
12636;BME280;6383;50.830;7.210;2022-07-29T12:10:47;100703.59;;;25.47;44.25
12636;BME280;6383;50.830;7.210;2022-07-29T12:13:18;100709.97;;;25.51;43.87
12636;BME280;6383;50.830;7.210;2022-07-29T12:15:54;100708.34;;;25.53;44.18
12636;BME280;6383;50.830;7.210;2022-07-29T12:18:24;100715.91;;;25.60;43.14
12636;BME280;6383;50.830;7.210;2022-07-29T12:20:59;100703.22;;;25.62;42.61
12636;BME280;6383;50.830;7.210;2022-07-29T12:23:31;100713.56;;;25.66;42.40
12636;BME280;6383;50.830;7.210;2022-07-29T12:26:04;100707.16;;;25.69;42.01
12636;BME280;6383;50.830;7.210;2022-07-29T12:28:37;100714.34;;;25.70;42.42
12636;BME280;6383;50.830;7.210;2022-07-29T12:31:05;100711.16;;;25.71;41.84
12636;BME280;6383;50.830;7.210;2022-07-29T12:33:34;100703.59;;;25.72;41.76
12636;BME280;6383;50.830;7.210;2022-07-29T12:36:05;100710.75;;;25.73;41.66
12636;BME280;6383;50.830;7.210;2022-07-29T12:38:35;100706.38;;;25.72;42.32
12636;BME280;6383;50.830;7.210;2022-07-29T12:41:04;100708.38;;;25.71;42.38
12636;BME280;6383;50.830;7.210;2022-07-29T12:43:33;100716.72;;;25.71;41.90
12636;BME280;6383;50.830;7.210;2022-07-29T12:46:12;100715.97;;;25.67;42.66
12636;BME280;6383;50.830;7.210;2022-07-29T12:48:42;100702.38;;;25.69;42.69
12636;BME280;6383;50.830;7.210;2022-07-29T12:51:13;100700.78;;;25.68;42.50
12636;BME280;6383;50.830;7.210;2022-07-29T12:54:03;100702.41;;;25.62;42.69
12636;BME280;6383;50.830;7.210;2022-07-29T12:56:32;100702.81;;;25.64;42.65
12636;BME280;6383;50.830;7.210;2022-07-29T12:59:14;100703.56;;;25.61;42.57
12636;BME280;6383;50.830;7.210;2022-07-29T13:01:44;100699.22;;;25.63;42.63
12636;BME280;6383;50.830;7.210;2022-07-29T13:04:24;100698.41;;;25.59;42.72
12636;BME280;6383;50.830;7.210;2022-07-29T13:07:02;100697.19;;;25.60;42.40
12636;BME280;6383;50.830;7.210;2022-07-29T13:09:37;100699.22;;;25.63;42.34
12636;BME280;6383;50.830;7.210;2022-07-29T13:12:06;100698.44;;;25.67;43.26
12636;BME280;6383;50.830;7.210;2022-07-29T13:14:36;100699.59;;;25.69;42.86
12636;BME280;6383;50.830;7.210;2022-07-29T13:17:07;100700.41;;;25.70;43.47
12636;BME280;6383;50.830;7.210;2022-07-29T13:19:37;100696.00;;;25.69;42.33
12636;BME280;6383;50.830;7.210;2022-07-29T13:22:09;100696.44;;;25.67;42.64
12636;BME280;6383;50.830;7.210;2022-07-29T13:24:48;100698.81;;;25.61;42.44
12636;BME280;6383;50.830;7.210;2022-07-29T13:27:19;100705.19;;;25.66;42.74
12636;BME280;6383;50.830;7.210;2022-07-29T13:29:48;100707.19;;;25.65;41.80
12636;BME280;6383;50.830;7.210;2022-07-29T13:32:19;100707.19;;;25.65;41.99
12636;BME280;6383;50.830;7.210;2022-07-29T13:34:48;100707.19;;;25.65;42.24
12636;BME280;6383;50.830;7.210;2022-07-29T13:37:19;100709.19;;;25.64;42.33